createdAt,value
2022-08-26T00:02:23.153Z,96760.75
2022-08-26T00:07:44.152Z,96759.34
2022-08-26T00:13:06.439Z,96757.34
2022-08-26T00:18:27.491Z,96762.63
2022-08-26T00:23:51.659Z,96762.63
2022-08-26T00:29:13.622Z,96759.38
2022-08-26T00:34:35.989Z,96757.75
2022-08-26T00:39:57.132Z,96755.69
2022-08-26T00:45:22.763Z,96755.88
2022-08-26T00:50:50.468Z,96762.22
2022-08-26T00:56:20.863Z,96767.50
2022-08-26T01:01:43.182Z,96765.66
2022-08-26T01:07:06.846Z,96756.28
2022-08-26T01:12:32.404Z,96747.53
2022-08-26T01:17:53.560Z,96750.59
2022-08-26T01:23:15.244Z,96746.31
2022-08-26T01:28:39.020Z,96750.38
2022-08-26T01:34:05.479Z,96745.31
2022-08-26T01:39:26.095Z,96754.06
2022-08-26T01:44:51.613Z,96751.63
2022-08-26T01:50:27.516Z,96753.66
2022-08-26T01:55:53.269Z,96744.28
2022-08-26T02:01:14.821Z,96754.28
2022-08-26T02:06:39.129Z,96745.88
2022-08-26T02:12:01.801Z,96748.53
2022-08-26T02:17:29.346Z,96730.63
2022-08-26T02:22:51.928Z,96740.00
2022-08-26T02:28:14.506Z,96737.75
2022-08-26T02:33:35.600Z,96728.97
2022-08-26T02:38:56.407Z,96731.22
2022-08-26T02:44:17.969Z,96730.59
2022-08-26T02:49:40.104Z,96726.31
2022-08-26T02:55:05.203Z,96727.34
2022-08-26T03:00:26.485Z,96724.28
2022-08-26T03:05:47.653Z,96728.78
2022-08-26T03:11:08.676Z,96718.78
2022-08-26T03:16:36.846Z,96727.94
2022-08-26T03:21:58.382Z,96718.19
2022-08-26T03:27:19.229Z,96719.56
2022-08-26T03:32:41.443Z,96726.00
2022-08-26T03:38:03.466Z,96717.88
2022-08-26T03:43:26.852Z,96718.31
2022-08-26T03:48:47.349Z,96721.75
2022-08-26T03:54:08.604Z,96708.72
2022-08-26T03:59:29.591Z,96714.66
2022-08-26T04:04:50.500Z,96708.56
2022-08-26T04:10:14.012Z,96715.88
2022-08-26T04:15:35.918Z,96712.97
2022-08-26T04:20:57.060Z,96717.84
2022-08-26T04:26:20.005Z,96720.09
2022-08-26T04:31:41.436Z,96713.56
2022-08-26T04:37:02.501Z,96712.28
2022-08-26T04:42:26.250Z,96717.38
2022-08-26T04:47:47.391Z,96706.47
2022-08-26T04:53:08.848Z,96712.22
2022-08-26T04:58:30.049Z,96716.75
2022-08-26T05:03:51.464Z,96712.47
2022-08-26T05:09:15.308Z,96716.13
2022-08-26T05:14:36.419Z,96718.59
2022-08-26T05:19:57.344Z,96721.41
2022-08-26T05:25:18.586Z,96728.56
2022-08-26T05:30:40.543Z,96723.91
2022-08-26T05:36:07.602Z,96718.59
2022-08-26T05:41:34.289Z,96722.66
2022-08-26T05:46:57.374Z,96723.91
2022-08-26T05:52:19.581Z,96727.38
2022-08-26T05:57:42.769Z,96726.16
2022-08-26T06:03:04.134Z,96725.31
2022-08-26T06:08:25.256Z,96726.13
2022-08-26T06:13:47.165Z,96730.97
2022-08-26T06:19:11.488Z,96725.09
2022-08-26T06:24:51.140Z,96720.44
2022-08-26T06:30:12.300Z,96715.97
2022-08-26T06:35:38.569Z,96709.72
2022-08-26T06:40:59.828Z,96705.97
2022-08-26T06:46:22.269Z,96699.44
2022-08-26T06:51:43.368Z,96698.34
2022-08-26T06:57:04.072Z,96699.75
2022-08-26T07:02:25.003Z,96696.16
2022-08-26T07:07:49.545Z,96704.44
2022-08-26T07:13:11.714Z,96707.69
2022-08-26T07:18:35.007Z,96710.25
2022-08-26T07:24:01.241Z,96710.03
2022-08-26T07:29:22.342Z,96712.69
2022-08-26T07:34:46.826Z,96710.84
2022-08-26T07:40:08.433Z,96715.25
2022-08-26T07:45:30.061Z,96708.06
2022-08-26T07:50:51.160Z,96701.81
2022-08-26T07:56:14.261Z,96710.88
2022-08-26T08:01:35.046Z,96715.81
2022-08-26T08:06:59.795Z,96707.72
2022-08-26T08:12:21.089Z,96713.38
2022-08-26T08:17:46.018Z,96706.31
2022-08-26T08:23:07.057Z,96701.94
2022-08-26T08:28:28.548Z,96692.53
2022-08-26T08:33:49.359Z,96696.63
2022-08-26T08:39:12.755Z,96692.41
2022-08-26T08:44:40.010Z,96690.69
2022-08-26T08:50:20.099Z,96684.31
2022-08-26T08:55:52.367Z,96683.75
2022-08-26T09:01:25.635Z,96674.00
2022-08-26T09:06:49.819Z,96668.78
2022-08-26T09:12:20.465Z,96660.44
2022-08-26T09:18:31.039Z,96669.81
2022-08-26T09:23:53.750Z,96673.06
2022-08-26T09:29:32.375Z,96670.41
2022-08-26T09:35:00.622Z,96659.88
2022-08-26T09:40:22.574Z,96661.69
2022-08-26T09:45:50.680Z,96661.56
2022-08-26T09:51:26.393Z,96660.41
2022-08-26T09:56:47.106Z,96650.44
2022-08-26T10:02:27.789Z,96651.13
2022-08-26T10:07:51.154Z,96625.34
2022-08-26T10:13:32.300Z,96628.00
2022-08-26T10:19:00.896Z,96624.84
2022-08-26T10:24:28.155Z,96619.13
2022-08-26T10:29:54.187Z,96615.81
2022-08-26T10:35:17.429Z,96610.13
2022-08-26T10:40:49.855Z,96607.19
2022-08-26T10:46:19.796Z,96603.19
2022-08-26T10:52:12.300Z,96595.75
2022-08-26T10:57:57.532Z,96595.50
2022-08-26T11:03:50.647Z,96596.31
2022-08-26T11:09:11.187Z,96589.22
2022-08-26T11:14:42.034Z,96574.72
2022-08-26T11:20:24.255Z,96579.09
2022-08-26T11:26:09.289Z,96581.16
2022-08-26T11:31:30.770Z,96571.09
2022-08-26T11:36:56.667Z,96561.59
2022-08-26T11:42:42.745Z,96556.28
2022-08-26T11:48:33.276Z,96541.19
2022-08-26T11:54:17.308Z,96530.19
2022-08-26T11:59:51.542Z,96527.72
2022-08-26T12:05:17.245Z,96525.47
2022-08-26T12:10:38.642Z,96519.22
2022-08-26T12:16:00.773Z,96516.34
2022-08-26T12:21:29.384Z,96507.13
2022-08-26T12:27:14.366Z,96504.78
2022-08-26T12:32:57.122Z,96497.59
2022-08-26T12:38:20.280Z,96479.78
2022-08-26T12:43:44.035Z,96475.38
2022-08-26T12:49:05.040Z,96472.63
2022-08-26T12:54:46.029Z,96473.59
2022-08-26T13:00:37.173Z,96472.47
2022-08-26T13:06:15.464Z,96465.81
2022-08-26T13:11:39.883Z,96456.72
2022-08-26T13:17:00.816Z,96462.56
2022-08-26T13:22:26.987Z,96462.78
2022-08-26T13:27:47.918Z,96454.84
2022-08-26T13:33:08.883Z,96453.13
2022-08-26T13:38:33.210Z,96454.19
2022-08-26T13:43:54.717Z,96447.75
2022-08-26T13:49:15.505Z,96439.28
2022-08-26T13:54:36.523Z,96434.03
2022-08-26T13:59:59.210Z,96428.41
2022-08-26T14:05:19.855Z,96431.03
2022-08-26T14:10:40.452Z,96429.94
2022-08-26T14:16:04.644Z,96426.91
2022-08-26T14:21:26.029Z,96429.50
2022-08-26T14:26:48.598Z,96419.06
2022-08-26T14:32:16.959Z,96389.88
2022-08-26T14:37:42.002Z,96386.63
2022-08-26T14:43:03.040Z,96396.63
2022-08-26T14:48:24.638Z,96404.44
2022-08-26T14:54:03.893Z,96401.81
2022-08-26T14:59:27.736Z,96425.94
2022-08-26T15:04:48.406Z,96467.38
2022-08-26T15:10:13.759Z,96487.63
2022-08-26T15:15:34.627Z,96509.38
2022-08-26T15:20:55.574Z,96436.78
2022-08-26T15:26:17.386Z,96409.09
2022-08-26T15:31:38.132Z,96399.72
2022-08-26T15:36:58.731Z,96416.00
2022-08-26T15:42:21.008Z,96444.72
2022-08-26T15:48:00.733Z,96471.22
2022-08-26T15:53:24.481Z,96479.69
2022-08-26T15:58:45.114Z,96520.19
2022-08-26T16:04:08.173Z,96510.38
2022-08-26T16:09:30.808Z,96465.53
2022-08-26T16:14:52.741Z,96452.41
2022-08-26T16:20:13.603Z,96478.13
2022-08-26T16:25:34.574Z,96516.22
2022-08-26T16:30:55.724Z,96498.91
2022-08-26T16:36:17.457Z,96444.91
2022-08-26T16:41:38.384Z,96412.19
2022-08-26T16:46:58.981Z,96432.97
2022-08-26T16:52:20.411Z,96425.31
2022-08-26T16:57:43.857Z,96417.00
2022-08-26T17:03:06.269Z,96419.88
2022-08-26T17:08:28.439Z,96420.03
2022-08-26T17:13:50.293Z,96426.53
2022-08-26T17:19:11.411Z,96414.19
2022-08-26T17:24:34.142Z,96424.06
2022-08-26T17:29:54.858Z,96413.38
2022-08-26T17:35:16.353Z,96425.69
2022-08-26T17:40:37.387Z,96444.41
2022-08-26T17:46:06.682Z,96454.91
2022-08-26T17:51:28.531Z,96457.44
2022-08-26T17:56:49.359Z,96446.47
2022-08-26T18:02:10.335Z,96447.97
2022-08-26T18:07:31.141Z,96441.69
2022-08-26T18:12:53.325Z,96437.25
2022-08-26T18:18:16.144Z,96452.97
2022-08-26T18:23:36.808Z,96446.63
2022-08-26T18:28:58.229Z,96465.19
2022-08-26T18:34:19.824Z,96476.81
2022-08-26T18:39:40.828Z,96494.47
2022-08-26T18:45:08.130Z,96519.72
2022-08-26T18:50:30.182Z,96515.84
2022-08-26T18:55:51.005Z,96525.66
2022-08-26T19:01:13.263Z,96535.06
2022-08-26T19:06:35.794Z,96541.34
2022-08-26T19:17:22.713Z,96557.22
2022-08-26T19:22:43.593Z,96556.59
2022-08-26T19:28:04.314Z,96560.31
2022-08-26T19:33:28.304Z,96561.97
2022-08-26T19:38:50.145Z,96552.25
2022-08-26T19:44:34.101Z,96540.84
2022-08-26T19:49:56.379Z,96542.66
2022-08-26T19:55:20.145Z,96538.41
2022-08-26T20:00:42.456Z,96534.56
2022-08-26T20:06:05.294Z,96531.50
2022-08-26T20:11:26.191Z,96530.47
2022-08-26T20:16:47.579Z,96519.06
2022-08-26T20:22:08.938Z,96508.84
2022-08-26T20:27:35.551Z,96499.13
2022-08-26T20:32:59.231Z,96492.00
2022-08-26T20:38:21.546Z,96486.31
2022-08-26T20:43:42.968Z,96506.63
2022-08-26T20:49:05.906Z,96499.16
2022-08-26T20:54:29.421Z,96492.63
2022-08-26T20:59:50.393Z,96490.38
2022-08-26T21:05:11.351Z,96484.69
2022-08-26T21:10:32.188Z,96466.16
2022-08-26T21:15:58.281Z,96474.53
2022-08-26T21:21:19.512Z,96472.47
2022-08-26T21:26:46.447Z,96466.59
2022-08-26T21:32:07.142Z,96473.53
2022-08-26T21:37:28.836Z,96473.75
2022-08-26T21:42:49.454Z,96465.03
2022-08-26T21:48:10.421Z,96476.66
2022-08-26T21:53:31.552Z,96484.41
2022-08-26T21:58:53.395Z,96485.41
2022-08-26T22:04:14.544Z,96486.66
2022-08-26T22:09:35.332Z,96490.78
2022-08-26T22:14:55.954Z,96498.72
2022-08-26T22:20:16.890Z,96508.50
2022-08-26T22:25:38.211Z,96494.84
2022-08-26T22:30:59.345Z,96499.94
2022-08-26T22:36:22.788Z,96505.22
2022-08-26T22:41:45.093Z,96510.94
2022-08-26T22:47:06.401Z,96502.19
2022-08-26T22:52:27.796Z,96503.41
2022-08-26T22:57:48.611Z,96496.69
2022-08-26T23:03:09.519Z,96488.94
2022-08-26T23:08:30.701Z,96488.53
2022-08-26T23:13:51.599Z,96490.97
2022-08-26T23:19:14.182Z,96482.03
2022-08-26T23:24:35.616Z,96479.38
2022-08-26T23:29:56.592Z,96479.78
2022-08-26T23:35:21.617Z,96476.75
2022-08-26T23:40:42.154Z,96484.06
2022-08-26T23:46:03.001Z,96494.06
2022-08-26T23:51:42.091Z,96487.53
2022-08-26T23:57:02.984Z,96485.50
